sensor_id;sensor_type;location;lat;lon;timestamp;P1;durP1;ratioP1;P2;durP2;ratioP2
6135;SDS011;24008;42.664;23.372;2023-07-31T00:00:12;4.95;;;4.45;;
6135;SDS011;24008;42.664;23.372;2023-07-31T00:02:39;4.78;;;4.38;;
6135;SDS011;24008;42.664;23.372;2023-07-31T00:05:09;4.78;;;4.32;;
6135;SDS011;24008;42.664;23.372;2023-07-31T00:07:36;4.80;;;4.40;;
6135;SDS011;24008;42.664;23.372;2023-07-31T00:10:03;5.03;;;4.53;;
6135;SDS011;24008;42.664;23.372;2023-07-31T00:12:29;5.05;;;4.63;;
6135;SDS011;24008;42.664;23.372;2023-07-31T00:14:56;5.00;;;4.47;;
6135;SDS011;24008;42.664;23.372;2023-07-31T00:17:23;4.75;;;4.35;;
6135;SDS011;24008;42.664;23.372;2023-07-31T00:19:50;4.85;;;4.25;;
6135;SDS011;24008;42.664;23.372;2023-07-31T00:22:18;4.95;;;4.55;;
6135;SDS011;24008;42.664;23.372;2023-07-31T00:24:45;4.97;;;4.47;;
6135;SDS011;24008;42.664;23.372;2023-07-31T00:27:12;5.90;;;4.57;;
6135;SDS011;24008;42.664;23.372;2023-07-31T00:29:38;5.07;;;4.68;;
6135;SDS011;24008;42.664;23.372;2023-07-31T00:32:06;4.90;;;4.50;;
6135;SDS011;24008;42.664;23.372;2023-07-31T00:34:33;4.80;;;4.40;;
6135;SDS011;24008;42.664;23.372;2023-07-31T00:37:00;4.72;;;4.32;;
6135;SDS011;24008;42.664;23.372;2023-07-31T00:39:29;5.88;;;5.22;;
6135;SDS011;24008;42.664;23.372;2023-07-31T00:41:56;5.47;;;4.85;;
6135;SDS011;24008;42.664;23.372;2023-07-31T00:44:23;5.47;;;4.97;;
6135;SDS011;24008;42.664;23.372;2023-07-31T00:46:50;5.88;;;5.30;;
6135;SDS011;24008;42.664;23.372;2023-07-31T00:49:17;5.60;;;5.10;;
6135;SDS011;24008;42.664;23.372;2023-07-31T00:51:44;6.57;;;5.45;;
6135;SDS011;24008;42.664;23.372;2023-07-31T00:54:10;6.53;;;5.93;;
6135;SDS011;24008;42.664;23.372;2023-07-31T00:56:39;7.18;;;5.65;;
6135;SDS011;24008;42.664;23.372;2023-07-31T00:59:07;6.57;;;5.97;;
6135;SDS011;24008;42.664;23.372;2023-07-31T01:01:33;8.43;;;6.97;;
6135;SDS011;24008;42.664;23.372;2023-07-31T01:04:00;8.60;;;7.70;;
6135;SDS011;24008;42.664;23.372;2023-07-31T01:06:29;8.95;;;8.10;;
6135;SDS011;24008;42.664;23.372;2023-07-31T01:09:03;9.43;;;8.52;;
6135;SDS011;24008;42.664;23.372;2023-07-31T01:11:33;10.68;;;9.57;;
6135;SDS011;24008;42.664;23.372;2023-07-31T01:14:06;10.75;;;9.65;;
6135;SDS011;24008;42.664;23.372;2023-07-31T01:16:33;11.02;;;9.50;;
6135;SDS011;24008;42.664;23.372;2023-07-31T01:18:59;10.50;;;9.48;;
6135;SDS011;24008;42.664;23.372;2023-07-31T01:21:33;10.40;;;9.40;;
6135;SDS011;24008;42.664;23.372;2023-07-31T01:24:23;11.98;;;10.77;;
6135;SDS011;24008;42.664;23.372;2023-07-31T01:26:58;13.70;;;11.60;;
6135;SDS011;24008;42.664;23.372;2023-07-31T01:29:33;15.48;;;12.80;;
6135;SDS011;24008;42.664;23.372;2023-07-31T01:32:06;13.87;;;12.53;;
6135;SDS011;24008;42.664;23.372;2023-07-31T01:34:35;14.95;;;13.35;;
6135;SDS011;24008;42.664;23.372;2023-07-31T01:37:03;16.00;;;14.38;;
6135;SDS011;24008;42.664;23.372;2023-07-31T01:39:30;15.90;;;14.00;;
6135;SDS011;24008;42.664;23.372;2023-07-31T01:41:58;16.97;;;15.17;;
6135;SDS011;24008;42.664;23.372;2023-07-31T01:44:25;16.93;;;15.20;;
6135;SDS011;24008;42.664;23.372;2023-07-31T01:46:52;17.67;;;15.87;;
6135;SDS011;24008;42.664;23.372;2023-07-31T01:49:18;19.30;;;16.50;;
6135;SDS011;24008;42.664;23.372;2023-07-31T01:51:45;19.83;;;17.73;;
6135;SDS011;24008;42.664;23.372;2023-07-31T01:54:12;21.17;;;18.70;;
6135;SDS011;24008;42.664;23.372;2023-07-31T01:56:39;22.30;;;19.73;;
6135;SDS011;24008;42.664;23.372;2023-07-31T01:59:07;24.27;;;19.07;;
6135;SDS011;24008;42.664;23.372;2023-07-31T02:01:33;24.43;;;21.17;;
6135;SDS011;24008;42.664;23.372;2023-07-31T02:04:00;24.10;;;20.73;;
6135;SDS011;24008;42.664;23.372;2023-07-31T02:06:27;24.80;;;21.23;;
6135;SDS011;24008;42.664;23.372;2023-07-31T02:08:54;26.43;;;21.80;;
6135;SDS011;24008;42.664;23.372;2023-07-31T02:11:21;30.80;;;23.77;;
6135;SDS011;24008;42.664;23.372;2023-07-31T02:13:47;27.03;;;23.67;;
6135;SDS011;24008;42.664;23.372;2023-07-31T02:16:15;28.67;;;23.43;;
6135;SDS011;24008;42.664;23.372;2023-07-31T02:18:42;26.30;;;22.63;;
6135;SDS011;24008;42.664;23.372;2023-07-31T02:21:09;28.70;;;23.83;;
6135;SDS011;24008;42.664;23.372;2023-07-31T02:23:35;28.77;;;23.93;;
6135;SDS011;24008;42.664;23.372;2023-07-31T02:26:02;27.07;;;23.63;;
6135;SDS011;24008;42.664;23.372;2023-07-31T02:28:29;28.77;;;24.13;;
6135;SDS011;24008;42.664;23.372;2023-07-31T02:30:56;27.13;;;23.50;;
6135;SDS011;24008;42.664;23.372;2023-07-31T02:33:24;30.57;;;24.87;;
6135;SDS011;24008;42.664;23.372;2023-07-31T02:35:51;29.20;;;24.70;;
6135;SDS011;24008;42.664;23.372;2023-07-31T02:38:17;28.10;;;22.93;;
6135;SDS011;24008;42.664;23.372;2023-07-31T02:40:44;31.92;;;25.85;;
6135;SDS011;24008;42.664;23.372;2023-07-31T02:43:11;28.77;;;25.10;;
6135;SDS011;24008;42.664;23.372;2023-07-31T02:45:39;30.07;;;24.63;;
6135;SDS011;24008;42.664;23.372;2023-07-31T02:48:05;28.43;;;24.83;;
6135;SDS011;24008;42.664;23.372;2023-07-31T02:50:33;29.60;;;25.60;;
6135;SDS011;24008;42.664;23.372;2023-07-31T02:53:00;29.20;;;25.97;;
6135;SDS011;24008;42.664;23.372;2023-07-31T02:55:27;31.00;;;25.27;;
6135;SDS011;24008;42.664;23.372;2023-07-31T02:57:54;30.27;;;24.75;;
6135;SDS011;24008;42.664;23.372;2023-07-31T03:00:20;30.10;;;25.23;;
6135;SDS011;24008;42.664;23.372;2023-07-31T03:02:47;31.10;;;25.97;;
6135;SDS011;24008;42.664;23.372;2023-07-31T03:05:14;30.03;;;25.70;;
6135;SDS011;24008;42.664;23.372;2023-07-31T03:07:42;28.87;;;24.37;;
6135;SDS011;24008;42.664;23.372;2023-07-31T03:10:09;30.80;;;24.93;;
6135;SDS011;24008;42.664;23.372;2023-07-31T03:12:36;30.10;;;24.23;;
6135;SDS011;24008;42.664;23.372;2023-07-31T03:15:03;27.43;;;24.13;;
6135;SDS011;24008;42.664;23.372;2023-07-31T03:17:30;28.92;;;24.05;;
6135;SDS011;24008;42.664;23.372;2023-07-31T03:19:56;29.10;;;23.50;;
6135;SDS011;24008;42.664;23.372;2023-07-31T03:22:23;28.50;;;23.88;;
6135;SDS011;24008;42.664;23.372;2023-07-31T03:24:51;28.60;;;24.50;;
6135;SDS011;24008;42.664;23.372;2023-07-31T03:27:18;28.58;;;24.27;;
6135;SDS011;24008;42.664;23.372;2023-07-31T03:29:45;29.57;;;24.17;;
6135;SDS011;24008;42.664;23.372;2023-07-31T03:32:12;29.60;;;24.90;;
6135;SDS011;24008;42.664;23.372;2023-07-31T03:34:38;29.40;;;24.15;;
6135;SDS011;24008;42.664;23.372;2023-07-31T03:37:05;31.35;;;25.90;;
6135;SDS011;24008;42.664;23.372;2023-07-31T03:39:34;28.73;;;24.70;;
6135;SDS011;24008;42.664;23.372;2023-07-31T03:42:02;29.20;;;24.48;;
6135;SDS011;24008;42.664;23.372;2023-07-31T03:44:29;48.70;;;35.78;;
6135;SDS011;24008;42.664;23.372;2023-07-31T03:46:56;35.70;;;28.67;;
6135;SDS011;24008;42.664;23.372;2023-07-31T03:49:23;30.75;;;24.65;;
6135;SDS011;24008;42.664;23.372;2023-07-31T03:51:50;33.70;;;27.45;;
6135;SDS011;24008;42.664;23.372;2023-07-31T03:54:16;34.00;;;28.23;;
6135;SDS011;24008;42.664;23.372;2023-07-31T03:56:43;30.63;;;25.38;;
6135;SDS011;24008;42.664;23.372;2023-07-31T03:59:11;29.52;;;23.98;;
6135;SDS011;24008;42.664;23.372;2023-07-31T04:01:38;30.15;;;25.27;;
6135;SDS011;24008;42.664;23.372;2023-07-31T04:04:05;32.55;;;24.73;;
6135;SDS011;24008;42.664;23.372;2023-07-31T04:06:31;30.80;;;23.33;;
6135;SDS011;24008;42.664;23.372;2023-07-31T04:08:58;31.40;;;25.33;;
6135;SDS011;24008;42.664;23.372;2023-07-31T04:11:25;30.27;;;24.17;;
6135;SDS011;24008;42.664;23.372;2023-07-31T04:13:52;31.00;;;25.23;;
6135;SDS011;24008;42.664;23.372;2023-07-31T04:16:20;30.88;;;24.73;;
6135;SDS011;24008;42.664;23.372;2023-07-31T04:18:47;32.25;;;26.05;;
6135;SDS011;24008;42.664;23.372;2023-07-31T04:21:13;34.40;;;25.38;;
6135;SDS011;24008;42.664;23.372;2023-07-31T04:23:40;36.28;;;26.25;;
6135;SDS011;24008;42.664;23.372;2023-07-31T04:26:07;35.00;;;24.58;;
6135;SDS011;24008;42.664;23.372;2023-07-31T04:28:34;31.05;;;24.83;;
6135;SDS011;24008;42.664;23.372;2023-07-31T04:31:00;33.05;;;25.40;;
6135;SDS011;24008;42.664;23.372;2023-07-31T04:33:28;30.40;;;25.08;;
6135;SDS011;24008;42.664;23.372;2023-07-31T04:35:55;31.40;;;25.48;;
6135;SDS011;24008;42.664;23.372;2023-07-31T04:38:22;30.60;;;25.05;;
6135;SDS011;24008;42.664;23.372;2023-07-31T04:40:49;32.33;;;25.00;;
6135;SDS011;24008;42.664;23.372;2023-07-31T04:43:15;30.02;;;24.88;;
6135;SDS011;24008;42.664;23.372;2023-07-31T04:45:44;29.42;;;24.50;;
6135;SDS011;24008;42.664;23.372;2023-07-31T04:48:12;33.80;;;25.20;;
6135;SDS011;24008;42.664;23.372;2023-07-31T04:50:40;31.25;;;24.55;;
6135;SDS011;24008;42.664;23.372;2023-07-31T04:53:07;29.08;;;23.08;;
6135;SDS011;24008;42.664;23.372;2023-07-31T04:55:34;30.90;;;24.85;;
6135;SDS011;24008;42.664;23.372;2023-07-31T04:58:01;28.25;;;22.77;;
6135;SDS011;24008;42.664;23.372;2023-07-31T05:00:27;29.35;;;24.17;;
6135;SDS011;24008;42.664;23.372;2023-07-31T05:02:54;30.92;;;23.65;;
6135;SDS011;24008;42.664;23.372;2023-07-31T05:05:21;30.60;;;23.20;;
6135;SDS011;24008;42.664;23.372;2023-07-31T05:07:49;28.73;;;22.83;;
6135;SDS011;24008;42.664;23.372;2023-07-31T05:10:16;26.80;;;22.65;;
6135;SDS011;24008;42.664;23.372;2023-07-31T05:12:43;27.98;;;21.20;;
6135;SDS011;24008;42.664;23.372;2023-07-31T05:15:10;24.00;;;20.25;;
6135;SDS011;24008;42.664;23.372;2023-07-31T05:17:36;25.63;;;22.08;;
6135;SDS011;24008;42.664;23.372;2023-07-31T05:20:04;23.73;;;20.38;;
6135;SDS011;24008;42.664;23.372;2023-07-31T05:22:31;23.75;;;20.75;;
6135;SDS011;24008;42.664;23.372;2023-07-31T05:24:59;22.23;;;19.83;;
6135;SDS011;24008;42.664;23.372;2023-07-31T05:27:26;23.25;;;19.25;;
6135;SDS011;24008;42.664;23.372;2023-07-31T05:29:53;21.60;;;19.20;;
6135;SDS011;24008;42.664;23.372;2023-07-31T05:32:19;21.02;;;17.70;;
6135;SDS011;24008;42.664;23.372;2023-07-31T05:34:46;20.38;;;18.17;;
6135;SDS011;24008;42.664;23.372;2023-07-31T05:37:13;19.90;;;17.70;;
6135;SDS011;24008;42.664;23.372;2023-07-31T05:39:40;18.73;;;16.75;;
6135;SDS011;24008;42.664;23.372;2023-07-31T05:42:08;18.23;;;16.05;;
6135;SDS011;24008;42.664;23.372;2023-07-31T05:44:34;17.88;;;15.98;;
6135;SDS011;24008;42.664;23.372;2023-07-31T05:47:01;17.77;;;15.90;;
6135;SDS011;24008;42.664;23.372;2023-07-31T05:49:28;17.65;;;15.10;;
6135;SDS011;24008;42.664;23.372;2023-07-31T05:51:55;16.27;;;14.68;;
6135;SDS011;24008;42.664;23.372;2023-07-31T05:54:22;15.60;;;13.60;;
6135;SDS011;24008;42.664;23.372;2023-07-31T05:56:49;16.88;;;12.50;;
6135;SDS011;24008;42.664;23.372;2023-07-31T05:59:17;14.35;;;12.68;;
6135;SDS011;24008;42.664;23.372;2023-07-31T06:01:43;13.05;;;11.57;;
6135;SDS011;24008;42.664;23.372;2023-07-31T06:04:10;14.27;;;11.52;;
6135;SDS011;24008;42.664;23.372;2023-07-31T06:06:37;12.13;;;10.98;;
6135;SDS011;24008;42.664;23.372;2023-07-31T06:09:04;12.00;;;10.77;;
6135;SDS011;24008;42.664;23.372;2023-07-31T06:11:32;12.65;;;11.38;;
6135;SDS011;24008;42.664;23.372;2023-07-31T06:13:59;12.35;;;10.90;;
6135;SDS011;24008;42.664;23.372;2023-07-31T06:16:27;11.07;;;9.88;;
6135;SDS011;24008;42.664;23.372;2023-07-31T06:18:54;10.23;;;9.20;;
6135;SDS011;24008;42.664;23.372;2023-07-31T06:21:21;9.50;;;8.60;;
6135;SDS011;24008;42.664;23.372;2023-07-31T06:23:47;8.48;;;7.68;;
6135;SDS011;24008;42.664;23.372;2023-07-31T06:26:14;8.02;;;7.25;;
6135;SDS011;24008;42.664;23.372;2023-07-31T06:28:41;7.20;;;6.60;;
6135;SDS011;24008;42.664;23.372;2023-07-31T06:31:08;7.90;;;6.57;;
6135;SDS011;24008;42.664;23.372;2023-07-31T06:33:37;6.97;;;6.32;;
6135;SDS011;24008;42.664;23.372;2023-07-31T06:36:04;6.30;;;5.80;;
6135;SDS011;24008;42.664;23.372;2023-07-31T06:38:31;7.82;;;5.82;;
6135;SDS011;24008;42.664;23.372;2023-07-31T06:40:58;6.07;;;5.53;;
6135;SDS011;24008;42.664;23.372;2023-07-31T06:43:25;6.18;;;5.68;;
6135;SDS011;24008;42.664;23.372;2023-07-31T06:45:52;6.85;;;5.55;;
6135;SDS011;24008;42.664;23.372;2023-07-31T06:48:18;6.03;;;5.35;;
6135;SDS011;24008;42.664;23.372;2023-07-31T06:50:47;7.97;;;5.70;;
6135;SDS011;24008;42.664;23.372;2023-07-31T06:53:13;8.43;;;5.10;;
6135;SDS011;24008;42.664;23.372;2023-07-31T06:55:40;6.10;;;5.60;;
6135;SDS011;24008;42.664;23.372;2023-07-31T06:58:07;6.00;;;5.40;;
6135;SDS011;24008;42.664;23.372;2023-07-31T07:00:33;5.90;;;5.20;;
6135;SDS011;24008;42.664;23.372;2023-07-31T07:03:00;6.80;;;5.05;;
6135;SDS011;24008;42.664;23.372;2023-07-31T07:05:27;5.72;;;4.80;;
6135;SDS011;24008;42.664;23.372;2023-07-31T07:07:55;5.10;;;4.60;;
6135;SDS011;24008;42.664;23.372;2023-07-31T07:10:22;4.85;;;4.45;;
6135;SDS011;24008;42.664;23.372;2023-07-31T07:12:48;5.45;;;4.95;;
6135;SDS011;24008;42.664;23.372;2023-07-31T07:15:16;5.68;;;4.88;;
6135;SDS011;24008;42.664;23.372;2023-07-31T07:17:42;4.55;;;4.10;;
6135;SDS011;24008;42.664;23.372;2023-07-31T07:20:09;4.70;;;4.03;;
6135;SDS011;24008;42.664;23.372;2023-07-31T07:22:36;6.47;;;5.68;;
6135;SDS011;24008;42.664;23.372;2023-07-31T07:25:05;5.03;;;4.45;;
6135;SDS011;24008;42.664;23.372;2023-07-31T07:27:33;5.15;;;4.35;;
6135;SDS011;24008;42.664;23.372;2023-07-31T07:29:59;4.65;;;3.83;;
6135;SDS011;24008;42.664;23.372;2023-07-31T07:32:26;4.30;;;3.90;;
6135;SDS011;24008;42.664;23.372;2023-07-31T07:34:53;5.75;;;4.00;;
6135;SDS011;24008;42.664;23.372;2023-07-31T07:37:22;6.90;;;4.43;;
6135;SDS011;24008;42.664;23.372;2023-07-31T07:39:48;5.25;;;4.03;;
6135;SDS011;24008;42.664;23.372;2023-07-31T07:42:17;4.60;;;4.15;;
6135;SDS011;24008;42.664;23.372;2023-07-31T07:44:44;7.03;;;4.10;;
6135;SDS011;24008;42.664;23.372;2023-07-31T07:47:11;5.00;;;4.53;;
6135;SDS011;24008;42.664;23.372;2023-07-31T07:49:37;7.95;;;4.65;;
6135;SDS011;24008;42.664;23.372;2023-07-31T07:52:04;5.47;;;4.15;;
6135;SDS011;24008;42.664;23.372;2023-07-31T07:54:31;6.63;;;4.75;;
6135;SDS011;24008;42.664;23.372;2023-07-31T07:56:58;7.57;;;5.55;;
6135;SDS011;24008;42.664;23.372;2023-07-31T07:59:26;6.40;;;4.55;;
6135;SDS011;24008;42.664;23.372;2023-07-31T08:01:53;5.10;;;4.13;;
6135;SDS011;24008;42.664;23.372;2023-07-31T08:04:20;4.88;;;4.25;;
6135;SDS011;24008;42.664;23.372;2023-07-31T08:06:47;8.05;;;3.75;;
6135;SDS011;24008;42.664;23.372;2023-07-31T08:09:13;5.30;;;3.65;;
6135;SDS011;24008;42.664;23.372;2023-07-31T08:11:40;4.28;;;3.13;;
6135;SDS011;24008;42.664;23.372;2023-07-31T08:14:07;3.70;;;3.40;;
6135;SDS011;24008;42.664;23.372;2023-07-31T08:16:35;4.78;;;3.60;;
6135;SDS011;24008;42.664;23.372;2023-07-31T08:19:02;3.70;;;3.35;;
6135;SDS011;24008;42.664;23.372;2023-07-31T08:21:29;4.82;;;3.90;;
6135;SDS011;24008;42.664;23.372;2023-07-31T08:23:56;9.45;;;6.00;;
6135;SDS011;24008;42.664;23.372;2023-07-31T08:26:22;4.85;;;4.13;;
6135;SDS011;24008;42.664;23.372;2023-07-31T08:28:49;6.65;;;3.88;;
6135;SDS011;24008;42.664;23.372;2023-07-31T08:31:16;5.43;;;3.50;;
6135;SDS011;24008;42.664;23.372;2023-07-31T08:33:44;4.03;;;3.63;;
6135;SDS011;24008;42.664;23.372;2023-07-31T08:36:11;3.90;;;3.60;;
6135;SDS011;24008;42.664;23.372;2023-07-31T08:38:38;8.57;;;4.10;;
6135;SDS011;24008;42.664;23.372;2023-07-31T08:41:05;12.43;;;9.27;;
6135;SDS011;24008;42.664;23.372;2023-07-31T08:43:32;5.90;;;4.05;;
6135;SDS011;24008;42.664;23.372;2023-07-31T08:45:59;7.07;;;3.67;;
6135;SDS011;24008;42.664;23.372;2023-07-31T08:48:28;4.32;;;3.30;;
6135;SDS011;24008;42.664;23.372;2023-07-31T08:50:57;3.95;;;3.55;;
6135;SDS011;24008;42.664;23.372;2023-07-31T08:53:23;5.13;;;3.65;;
6135;SDS011;24008;42.664;23.372;2023-07-31T08:55:51;5.15;;;3.50;;
6135;SDS011;24008;42.664;23.372;2023-07-31T08:58:19;4.40;;;3.50;;
6135;SDS011;24008;42.664;23.372;2023-07-31T09:00:46;6.28;;;3.33;;
6135;SDS011;24008;42.664;23.372;2023-07-31T09:03:13;4.07;;;3.67;;
6135;SDS011;24008;42.664;23.372;2023-07-31T09:05:42;3.90;;;3.58;;
6135;SDS011;24008;42.664;23.372;2023-07-31T09:08:12;6.25;;;3.50;;
6135;SDS011;24008;42.664;23.372;2023-07-31T09:10:43;4.03;;;3.70;;
6135;SDS011;24008;42.664;23.372;2023-07-31T09:13:11;4.68;;;3.70;;
6135;SDS011;24008;42.664;23.372;2023-07-31T09:15:38;10.20;;;7.20;;
6135;SDS011;24008;42.664;23.372;2023-07-31T09:18:06;3.80;;;3.40;;
6135;SDS011;24008;42.664;23.372;2023-07-31T09:20:34;4.28;;;3.75;;
6135;SDS011;24008;42.664;23.372;2023-07-31T09:23:06;4.43;;;3.20;;
6135;SDS011;24008;42.664;23.372;2023-07-31T09:25:36;4.57;;;2.97;;
6135;SDS011;24008;42.664;23.372;2023-07-31T09:28:03;4.15;;;3.70;;
6135;SDS011;24008;42.664;23.372;2023-07-31T09:30:32;3.35;;;3.03;;
6135;SDS011;24008;42.664;23.372;2023-07-31T09:33:11;10.77;;;9.63;;
6135;SDS011;24008;42.664;23.372;2023-07-31T09:35:38;7.72;;;6.15;;
6135;SDS011;24008;42.664;23.372;2023-07-31T09:38:07;3.67;;;3.30;;
6135;SDS011;24008;42.664;23.372;2023-07-31T09:40:37;4.43;;;3.50;;
6135;SDS011;24008;42.664;23.372;2023-07-31T09:43:05;4.82;;;3.75;;
6135;SDS011;24008;42.664;23.372;2023-07-31T09:45:34;4.60;;;3.67;;
6135;SDS011;24008;42.664;23.372;2023-07-31T09:48:02;4.95;;;4.10;;
6135;SDS011;24008;42.664;23.372;2023-07-31T09:50:29;3.67;;;3.38;;
6135;SDS011;24008;42.664;23.372;2023-07-31T09:52:56;4.78;;;3.47;;
6135;SDS011;24008;42.664;23.372;2023-07-31T09:55:23;4.25;;;3.47;;
6135;SDS011;24008;42.664;23.372;2023-07-31T09:57:51;4.20;;;3.40;;
6135;SDS011;24008;42.664;23.372;2023-07-31T10:00:20;4.20;;;3.55;;
6135;SDS011;24008;42.664;23.372;2023-07-31T10:02:50;12.65;;;9.32;;
6135;SDS011;24008;42.664;23.372;2023-07-31T10:05:19;4.20;;;3.80;;
6135;SDS011;24008;42.664;23.372;2023-07-31T10:07:49;4.75;;;3.70;;
6135;SDS011;24008;42.664;23.372;2023-07-31T10:10:20;7.28;;;3.83;;
6135;SDS011;24008;42.664;23.372;2023-07-31T10:12:48;3.70;;;3.40;;
6135;SDS011;24008;42.664;23.372;2023-07-31T10:15:16;4.15;;;2.55;;
6135;SDS011;24008;42.664;23.372;2023-07-31T10:17:44;5.60;;;2.97;;
6135;SDS011;24008;42.664;23.372;2023-07-31T10:20:12;4.07;;;3.15;;
6135;SDS011;24008;42.664;23.372;2023-07-31T10:22:41;3.25;;;2.90;;
6135;SDS011;24008;42.664;23.372;2023-07-31T10:25:09;5.95;;;3.00;;
6135;SDS011;24008;42.664;23.372;2023-07-31T10:27:36;5.93;;;2.90;;
6135;SDS011;24008;42.664;23.372;2023-07-31T10:30:06;7.45;;;6.63;;
6135;SDS011;24008;42.664;23.372;2023-07-31T10:32:37;7.72;;;3.13;;
6135;SDS011;24008;42.664;23.372;2023-07-31T10:35:07;5.28;;;3.05;;
6135;SDS011;24008;42.664;23.372;2023-07-31T10:37:39;6.03;;;3.55;;
6135;SDS011;24008;42.664;23.372;2023-07-31T10:40:09;4.70;;;3.15;;
6135;SDS011;24008;42.664;23.372;2023-07-31T10:42:38;3.28;;;2.97;;
6135;SDS011;24008;42.664;23.372;2023-07-31T10:45:12;2.70;;;2.38;;
6135;SDS011;24008;42.664;23.372;2023-07-31T10:47:43;3.22;;;2.72;;
6135;SDS011;24008;42.664;23.372;2023-07-31T10:50:18;2.75;;;2.30;;
6135;SDS011;24008;42.664;23.372;2023-07-31T10:52:46;5.68;;;2.63;;
6135;SDS011;24008;42.664;23.372;2023-07-31T10:55:15;4.78;;;2.67;;
6135;SDS011;24008;42.664;23.372;2023-07-31T10:57:48;2.92;;;2.63;;
6135;SDS011;24008;42.664;23.372;2023-07-31T11:00:19;2.97;;;2.60;;
6135;SDS011;24008;42.664;23.372;2023-07-31T11:03:01;3.08;;;2.42;;
6135;SDS011;24008;42.664;23.372;2023-07-31T11:05:45;3.63;;;2.30;;
6135;SDS011;24008;42.664;23.372;2023-07-31T11:08:14;3.33;;;2.70;;
6135;SDS011;24008;42.664;23.372;2023-07-31T11:10:43;2.50;;;2.30;;
6135;SDS011;24008;42.664;23.372;2023-07-31T11:13:12;3.95;;;2.92;;
6135;SDS011;24008;42.664;23.372;2023-07-31T11:15:40;5.53;;;3.00;;
6135;SDS011;24008;42.664;23.372;2023-07-31T11:18:08;4.22;;;2.80;;
6135;SDS011;24008;42.664;23.372;2023-07-31T11:20:37;6.18;;;2.47;;
6135;SDS011;24008;42.664;23.372;2023-07-31T11:23:06;2.47;;;2.28;;
6135;SDS011;24008;42.664;23.372;2023-07-31T11:25:35;4.47;;;2.13;;
6135;SDS011;24008;42.664;23.372;2023-07-31T11:28:03;2.90;;;2.58;;
6135;SDS011;24008;42.664;23.372;2023-07-31T11:30:31;3.88;;;2.33;;
6135;SDS011;24008;42.664;23.372;2023-07-31T11:32:59;3.42;;;2.50;;
6135;SDS011;24008;42.664;23.372;2023-07-31T11:35:29;4.35;;;2.20;;
6135;SDS011;24008;42.664;23.372;2023-07-31T11:37:56;3.75;;;3.40;;
6135;SDS011;24008;42.664;23.372;2023-07-31T11:40:23;10.00;;;6.13;;
6135;SDS011;24008;42.664;23.372;2023-07-31T11:42:54;2.85;;;2.50;;
6135;SDS011;24008;42.664;23.372;2023-07-31T11:45:25;5.30;;;2.58;;
6135;SDS011;24008;42.664;23.372;2023-07-31T11:47:55;2.75;;;2.33;;
6135;SDS011;24008;42.664;23.372;2023-07-31T11:50:23;4.35;;;2.50;;
6135;SDS011;24008;42.664;23.372;2023-07-31T11:52:53;3.72;;;2.72;;
6135;SDS011;24008;42.664;23.372;2023-07-31T11:55:24;3.30;;;3.00;;
6135;SDS011;24008;42.664;23.372;2023-07-31T11:57:52;3.03;;;2.72;;
6135;SDS011;24008;42.664;23.372;2023-07-31T12:00:20;4.25;;;3.08;;
6135;SDS011;24008;42.664;23.372;2023-07-31T12:02:48;4.15;;;3.10;;
6135;SDS011;24008;42.664;23.372;2023-07-31T12:05:15;5.28;;;2.75;;
6135;SDS011;24008;42.664;23.372;2023-07-31T12:07:45;4.63;;;3.13;;
6135;SDS011;24008;42.664;23.372;2023-07-31T12:10:24;4.38;;;3.28;;
6135;SDS011;24008;42.664;23.372;2023-07-31T12:13:02;5.93;;;2.80;;
6135;SDS011;24008;42.664;23.372;2023-07-31T12:15:34;5.07;;;3.00;;
6135;SDS011;24008;42.664;23.372;2023-07-31T12:18:05;4.25;;;3.00;;
6135;SDS011;24008;42.664;23.372;2023-07-31T12:20:33;5.25;;;4.00;;
6135;SDS011;24008;42.664;23.372;2023-07-31T12:23:00;4.13;;;3.72;;
6135;SDS011;24008;42.664;23.372;2023-07-31T12:25:32;6.43;;;4.18;;
6135;SDS011;24008;42.664;23.372;2023-07-31T12:28:05;4.30;;;3.90;;
6135;SDS011;24008;42.664;23.372;2023-07-31T12:30:37;4.25;;;3.72;;
6135;SDS011;24008;42.664;23.372;2023-07-31T12:33:06;5.07;;;4.57;;
6135;SDS011;24008;42.664;23.372;2023-07-31T12:35:37;5.38;;;4.88;;
6135;SDS011;24008;42.664;23.372;2023-07-31T12:38:04;5.78;;;5.22;;
6135;SDS011;24008;42.664;23.372;2023-07-31T12:40:32;6.43;;;5.70;;
6135;SDS011;24008;42.664;23.372;2023-07-31T12:43:02;6.93;;;5.53;;
6135;SDS011;24008;42.664;23.372;2023-07-31T12:45:29;7.00;;;6.40;;
6135;SDS011;24008;42.664;23.372;2023-07-31T12:47:56;5.82;;;5.30;;
6135;SDS011;24008;42.664;23.372;2023-07-31T12:50:23;6.55;;;5.95;;
6135;SDS011;24008;42.664;23.372;2023-07-31T12:52:51;5.90;;;5.30;;
6135;SDS011;24008;42.664;23.372;2023-07-31T12:55:17;7.40;;;5.82;;
6135;SDS011;24008;42.664;23.372;2023-07-31T12:57:46;7.07;;;5.85;;
6135;SDS011;24008;42.664;23.372;2023-07-31T13:00:13;10.45;;;5.82;;
6135;SDS011;24008;42.664;23.372;2023-07-31T13:02:40;7.55;;;5.68;;
6135;SDS011;24008;42.664;23.372;2023-07-31T13:05:07;6.57;;;6.03;;
6135;SDS011;24008;42.664;23.372;2023-07-31T13:07:34;6.80;;;6.20;;
6135;SDS011;24008;42.664;23.372;2023-07-31T13:10:01;8.13;;;6.45;;
6135;SDS011;24008;42.664;23.372;2023-07-31T13:12:28;7.15;;;6.43;;
6135;SDS011;24008;42.664;23.372;2023-07-31T13:14:56;8.82;;;7.57;;
6135;SDS011;24008;42.664;23.372;2023-07-31T13:17:23;11.05;;;7.72;;
6135;SDS011;24008;42.664;23.372;2023-07-31T13:19:49;10.25;;;7.40;;
6135;SDS011;24008;42.664;23.372;2023-07-31T13:22:16;7.60;;;6.90;;
6135;SDS011;24008;42.664;23.372;2023-07-31T13:24:43;9.60;;;6.53;;
6135;SDS011;24008;42.664;23.372;2023-07-31T13:27:10;7.45;;;6.75;;
6135;SDS011;24008;42.664;23.372;2023-07-31T13:29:36;8.55;;;6.75;;
6135;SDS011;24008;42.664;23.372;2023-07-31T13:32:05;8.50;;;6.78;;
6135;SDS011;24008;42.664;23.372;2023-07-31T13:34:32;7.75;;;6.60;;
6135;SDS011;24008;42.664;23.372;2023-07-31T13:36:59;11.00;;;6.70;;
6135;SDS011;24008;42.664;23.372;2023-07-31T13:39:25;7.55;;;6.15;;
6135;SDS011;24008;42.664;23.372;2023-07-31T13:41:52;6.20;;;5.60;;
6135;SDS011;24008;42.664;23.372;2023-07-31T13:44:20;6.00;;;5.30;;
6135;SDS011;24008;42.664;23.372;2023-07-31T13:46:46;9.98;;;5.60;;
6135;SDS011;24008;42.664;23.372;2023-07-31T13:49:15;6.78;;;6.18;;
6135;SDS011;24008;42.664;23.372;2023-07-31T13:51:41;9.15;;;6.40;;
6135;SDS011;24008;42.664;23.372;2023-07-31T13:54:09;9.65;;;6.35;;
6135;SDS011;24008;42.664;23.372;2023-07-31T13:56:36;6.65;;;5.95;;
6135;SDS011;24008;42.664;23.372;2023-07-31T13:59:04;7.53;;;5.93;;
6135;SDS011;24008;42.664;23.372;2023-07-31T14:01:31;5.78;;;5.00;;
6135;SDS011;24008;42.664;23.372;2023-07-31T14:03:57;5.97;;;5.20;;
6135;SDS011;24008;42.664;23.372;2023-07-31T14:06:26;6.43;;;4.82;;
6135;SDS011;24008;42.664;23.372;2023-07-31T14:08:53;6.55;;;5.30;;
6135;SDS011;24008;42.664;23.372;2023-07-31T14:11:20;5.80;;;5.28;;
6135;SDS011;24008;42.664;23.372;2023-07-31T14:13:47;7.10;;;5.25;;
6135;SDS011;24008;42.664;23.372;2023-07-31T14:16:14;6.07;;;5.47;;
6135;SDS011;24008;42.664;23.372;2023-07-31T14:18:41;5.78;;;5.28;;
6135;SDS011;24008;42.664;23.372;2023-07-31T14:21:07;8.02;;;5.55;;
6135;SDS011;24008;42.664;23.372;2023-07-31T14:23:35;7.78;;;5.43;;
6135;SDS011;24008;42.664;23.372;2023-07-31T14:26:02;6.38;;;5.78;;
6135;SDS011;24008;42.664;23.372;2023-07-31T14:28:29;7.28;;;6.57;;
6135;SDS011;24008;42.664;23.372;2023-07-31T14:30:56;8.95;;;7.88;;
6135;SDS011;24008;42.664;23.372;2023-07-31T14:33:23;7.85;;;6.78;;
6135;SDS011;24008;42.664;23.372;2023-07-31T14:35:50;6.25;;;5.72;;
6135;SDS011;24008;42.664;23.372;2023-07-31T14:38:18;6.50;;;5.90;;
6135;SDS011;24008;42.664;23.372;2023-07-31T14:40:46;6.22;;;5.60;;